Time;durP1;ratioP1;P1;durP2;ratioP2;P2;SDS_P1;SDS_P2;PMS_P1;PMS_P2;Temp;Humidity;BMP_temperature;BMP_pressure;BME280_temperature;BME280_humidity;BME280_pressure;Samples;Min_cycle;Max_cycle;Signal;HPM_P1;HPM_P2
2022/01/31 00:00:17;;;;;;;4.78;2.63;;;21.30;52.30;;;;;;5030885;28;20211;-68
2022/01/31 00:02:46;;;;;;;3.63;3.28;;;21.30;52.30;;;;;;5032256;28;20263;-68
2022/01/31 00:05:13;;;;;;;3.58;2.72;;;21.30;52.20;;;;;;4998119;28;20225;-68
2022/01/31 00:07:39;;;;;;;6.20;2.65;;;21.30;52.30;;;;;;4998418;28;20270;-67
2022/01/31 00:10:10;;;;;;;3.88;2.60;;;21.30;52.20;;;;;;4998143;28;20286;-68
2022/01/31 00:13:30;;;;;;;3.83;2.60;;;21.30;52.20;;;;;;5014461;28;20266;-68
2022/01/31 00:15:24;;;;;;;3.35;2.20;;;21.30;52.20;;;;;;5006834;28;20187;-67
2022/01/31 00:17:50;;;;;;;2.80;2.40;;;21.30;52.10;;;;;;4997820;28;20596;-68
2022/01/31 00:20:16;;;;;;;3.90;2.42;;;21.30;52.10;;;;;;5014216;28;20214;-68
2022/01/31 00:22:42;;;;;;;3.15;2.42;;;21.30;52.10;;;;;;4997870;28;20184;-68
2022/01/31 00:25:08;;;;;;;4.30;2.67;;;21.30;52.10;;;;;;5014062;28;20202;-68
2022/01/31 00:27:34;;;;;;;3.90;2.70;;;21.30;52.10;;;;;;4998088;28;20249;-68
2022/01/31 00:30:00;;;;;;;4.55;2.45;;;21.30;52.10;;;;;;4997902;28;20674;-68
2022/01/31 00:32:29;;;;;;;4.00;2.92;;;21.30;52.10;;;;;;4998110;28;20187;-68
2022/01/31 00:34:56;;;;;;;4.03;2.60;;;21.30;52.00;;;;;;5001268;28;20215;-68
2022/01/31 00:37:23;;;;;;;4.53;2.75;;;21.30;52.00;;;;;;5017645;28;20206;-68
2022/01/31 00:39:49;;;;;;;4.20;2.70;;;21.30;52.00;;;;;;5017495;28;20287;-68
2022/01/31 00:42:15;;;;;;;4.55;2.70;;;21.30;52.00;;;;;;5001437;28;20190;-67
2022/01/31 00:45:10;;;;;;;3.90;2.72;;;21.30;52.00;;;;;;5000913;28;20179;-68
2022/01/31 00:47:31;;;;;;;3.47;2.35;;;21.30;52.00;;;;;;5016470;28;20275;-67
2022/01/31 00:50:07;;;;;;;2.70;2.10;;;21.30;52.00;;;;;;5017111;28;20310;-68
2022/01/31 00:52:34;;;;;;;2.40;2.20;;;21.30;51.90;;;;;;5001021;28;20189;-68
2022/01/31 00:55:01;;;;;;;3.20;2.42;;;21.20;51.80;;;;;;5017076;28;20187;-68
2022/01/31 00:57:27;;;;;;;4.47;2.50;;;21.30;51.90;;;;;;5000949;28;20223;-68
2022/01/31 00:59:53;;;;;;;2.30;2.10;;;21.30;51.90;;;;;;5017101;28;20225;-68
2022/01/31 01:02:21;;;;;;;3.08;2.28;;;21.20;51.80;;;;;;5017508;28;20638;-68
2022/01/31 01:04:48;;;;;;;2.70;2.03;;;21.30;51.90;;;;;;5011155;28;20188;-67
2022/01/31 01:07:14;;;;;;;2.90;2.20;;;21.30;51.90;;;;;;5013862;28;20180;-68
2022/01/31 01:09:46;;;;;;;3.33;2.30;;;21.30;51.90;;;;;;5013703;28;20176;-67
2022/01/31 01:12:18;;;;;;;4.47;2.45;;;21.30;51.90;;;;;;4997713;28;20176;-68
2022/01/31 01:14:47;;;;;;;4.20;2.67;;;21.20;51.90;;;;;;4997149;28;20631;-67
2022/01/31 01:17:13;;;;;;;3.08;2.17;;;21.30;52.00;;;;;;4997234;28;20644;-68
2022/01/31 01:19:38;;;;;;;4.63;2.75;;;21.20;51.80;;;;;;5013777;28;20225;-67
2022/01/31 01:22:04;;;;;;;5.10;2.67;;;21.20;51.80;;;;;;4997562;28;20184;-67
2022/01/31 01:24:30;;;;;;;4.03;2.30;;;21.20;51.80;;;;;;5013560;28;20184;-67
2022/01/31 01:26:57;;;;;;;2.80;2.30;;;21.20;51.80;;;;;;5013818;28;20671;-67
2022/01/31 01:29:24;;;;;;;4.10;2.30;;;21.20;51.80;;;;;;5013514;28;20295;-67
2022/01/31 01:31:51;;;;;;;2.55;2.13;;;21.20;51.80;;;;;;5013346;28;20219;-67
2022/01/31 01:34:22;;;;;;;4.13;2.60;;;21.20;51.80;;;;;;5013003;28;20192;-67
2022/01/31 01:36:50;;;;;;;3.00;2.30;;;21.30;51.80;;;;;;4997312;28;20196;-68
2022/01/31 01:39:16;;;;;;;2.78;2.30;;;21.20;51.80;;;;;;5013297;28;20208;-68
2022/01/31 01:41:43;;;;;;;2.58;2.17;;;21.30;51.80;;;;;;5013280;28;20204;-68
2022/01/31 01:44:10;;;;;;;3.15;1.85;;;21.20;51.80;;;;;;5012979;28;20235;-68
2022/01/31 01:46:37;;;;;;;4.63;2.10;;;21.30;51.90;;;;;;5013047;28;20188;-67
2022/01/31 01:49:03;;;;;;;4.05;2.65;;;21.20;51.80;;;;;;5013461;28;20183;-67
2022/01/31 01:51:30;;;;;;;2.42;1.90;;;21.20;51.80;;;;;;5012881;28;20306;-67
2022/01/31 01:53:58;;;;;;;3.45;2.38;;;21.20;51.80;;;;;;5013058;28;20742;-68
2022/01/31 01:56:25;;;;;;;3.00;2.70;;;21.20;51.70;;;;;;5013163;28;20180;-67
2022/01/31 01:58:51;;;;;;;3.53;2.42;;;21.20;51.80;;;;;;4996545;28;20218;-67
2022/01/31 02:01:17;;;;;;;3.53;2.15;;;21.20;51.70;;;;;;5013197;28;20561;-67
2022/01/31 02:03:50;;;;;;;2.47;2.03;;;21.20;51.70;;;;;;5012886;28;20211;-67
2022/01/31 02:06:17;;;;;;;3.72;2.22;;;21.20;51.70;;;;;;5012242;28;20188;-68
2022/01/31 02:08:44;;;;;;;3.17;2.22;;;21.20;51.70;;;;;;5013071;28;20179;-68
2022/01/31 02:11:20;;;;;;;3.45;2.17;;;21.20;51.70;;;;;;5013075;28;20207;-67
2022/01/31 02:13:49;;;;;;;2.88;2.03;;;21.20;51.70;;;;;;5012277;28;20188;-68
2022/01/31 02:16:51;;;;;;;2.40;2.20;;;21.20;51.70;;;;;;5013758;28;20213;-67
2022/01/31 02:19:30;;;;;;;1.88;1.65;;;21.20;51.70;;;;;;5010682;28;20220;-67
2022/01/31 02:22:16;;;;;;;3.45;2.47;;;21.20;51.70;;;;;;4996283;28;20186;-68
2022/01/31 02:24:42;;;;;;;4.57;2.20;;;21.20;51.70;;;;;;5012663;28;20191;-67
2022/01/31 02:27:36;;;;;;;2.80;2.10;;;21.20;51.70;;;;;;4986447;28;20195;-68
2022/01/31 02:30:12;;;;;;;3.30;1.98;;;21.20;52.30;;;;;;5012243;28;20295;-67
2022/01/31 02:32:43;;;;;;;2.50;1.90;;;21.20;51.70;;;;;;5012312;28;20214;-68
2022/01/31 02:35:11;;;;;;;3.03;2.13;;;21.20;51.70;;;;;;5012249;28;20579;-68
2022/01/31 02:37:38;;;;;;;2.67;2.22;;;21.20;51.60;;;;;;5012486;28;20212;-67
2022/01/31 02:40:33;;;;;;;3.13;2.35;;;21.20;51.70;;;;;;5006515;28;20272;-68
2022/01/31 02:43:03;;;;;;;2.05;1.75;;;21.20;51.70;;;;;;4996184;28;20180;-68
2022/01/31 02:45:30;;;;;;;3.85;2.17;;;21.20;51.70;;;;;;5011929;28;20208;-67
2022/01/31 02:47:59;;;;;;;2.90;2.15;;;21.30;51.70;;;;;;5012579;28;20210;-67
2022/01/31 02:50:30;;;;;;;2.20;1.83;;;21.20;51.70;;;;;;5012020;28;20215;-67
2022/01/31 02:53:10;;;;;;;3.72;2.08;;;21.20;51.70;;;;;;5013199;28;20188;-68
2022/01/31 02:55:42;;;;;;;2.00;1.80;;;21.20;51.70;;;;;;5011344;28;20230;-68
2022/01/31 02:58:09;;;;;;;2.20;1.98;;;21.20;51.70;;;;;;5011705;28;20212;-68
2022/01/31 03:00:36;;;;;;;3.35;1.80;;;21.20;51.60;;;;;;5011601;28;20200;-67
2022/01/31 03:03:08;;;;;;;1.67;1.45;;;21.20;51.70;;;;;;4995866;28;20188;-67
2022/01/31 03:05:35;;;;;;;2.95;1.90;;;21.20;51.60;;;;;;5011854;28;20203;-67
2022/01/31 03:08:05;;;;;;;1.88;1.67;;;21.20;51.60;;;;;;5004192;28;20282;-68
2022/01/31 03:10:32;;;;;;;2.10;1.90;;;21.20;51.60;;;;;;5015018;28;20613;-68
2022/01/31 03:12:58;;;;;;;2.10;1.63;;;21.20;51.70;;;;;;5014844;28;20188;-67
2022/01/31 03:15:24;;;;;;;3.90;1.85;;;21.30;51.70;;;;;;4997026;28;20188;-68
2022/01/31 03:18:13;;;;;;;2.58;1.98;;;21.20;51.60;;;;;;5032073;28;20317;-68
2022/01/31 03:20:40;;;;;;;3.20;1.98;;;21.20;51.60;;;;;;5015078;28;20286;-67
2022/01/31 03:23:07;;;;;;;2.13;1.90;;;21.20;51.70;;;;;;4998746;28;20207;-67
2022/01/31 03:25:33;;;;;;;3.65;1.70;;;21.20;51.70;;;;;;5014731;28;20219;-67
2022/01/31 03:27:59;;;;;;;2.15;1.52;;;21.20;51.70;;;;;;4998542;28;20644;-67
2022/01/31 03:30:25;;;;;;;1.67;1.48;;;21.30;51.70;;;;;;4998257;28;20583;-67
2022/01/31 03:32:55;;;;;;;2.20;1.88;;;21.20;51.70;;;;;;5015233;28;20233;-67
2022/01/31 03:35:22;;;;;;;4.68;1.90;;;21.20;51.70;;;;;;5014434;28;20183;-68
2022/01/31 03:37:48;;;;;;;2.78;2.10;;;21.20;51.70;;;;;;4998593;28;20318;-67
2022/01/31 03:40:19;;;;;;;2.05;1.80;;;21.30;51.70;;;;;;4999203;28;20195;-67
2022/01/31 03:42:45;;;;;;;2.00;1.63;;;21.30;51.70;;;;;;4998534;28;20651;-67
2022/01/31 03:45:12;;;;;;;1.67;1.58;;;21.30;51.70;;;;;;4998022;28;20188;-67
2022/01/31 03:47:44;;;;;;;3.10;2.05;;;21.30;51.70;;;;;;5014766;28;20214;-67
2022/01/31 03:50:18;;;;;;;2.50;1.52;;;21.20;51.60;;;;;;5014318;28;20215;-67
2022/01/31 03:52:48;;;;;;;2.45;1.65;;;21.20;51.60;;;;;;4998855;28;20172;-68
2022/01/31 03:55:16;;;;;;;2.28;1.90;;;21.20;51.60;;;;;;5014352;28;20214;-67
2022/01/31 03:57:46;;;;;;;1.70;1.60;;;21.20;51.60;;;;;;5014374;28;20207;-67
2022/01/31 04:00:39;;;;;;;1.58;1.48;;;21.30;51.70;;;;;;5014221;28;20214;-67
2022/01/31 04:03:05;;;;;;;4.50;1.88;;;21.20;51.60;;;;;;5014878;28;20187;-68
2022/01/31 04:05:31;;;;;;;2.08;1.85;;;21.20;52.20;;;;;;5014614;28;20171;-67
2022/01/31 04:07:58;;;;;;;3.20;2.08;;;21.20;51.60;;;;;;5034930;28;20176;-67
2022/01/31 04:10:26;;;;;;;3.35;1.77;;;21.20;51.60;;;;;;5036194;28;20286;-67
2022/01/31 04:12:52;;;;;;;5.20;1.85;;;21.20;51.60;;;;;;5017949;28;20187;-67
2022/01/31 04:15:18;;;;;;;1.77;1.50;;;21.20;51.60;;;;;;5035677;28;20249;-67
2022/01/31 04:17:45;;;;;;;2.10;1.50;;;21.20;51.60;;;;;;5035821;28;20241;-68
2022/01/31 04:20:11;;;;;;;2.30;1.67;;;21.20;51.60;;;;;;5035997;28;20298;-67
2022/01/31 04:22:44;;;;;;;1.73;1.60;;;21.20;51.60;;;;;;5036040;28;20386;-67
2022/01/31 04:25:27;;;;;;;2.47;1.60;;;21.30;51.60;;;;;;5035924;28;20172;-67
2022/01/31 04:28:01;;;;;;;2.08;1.52;;;21.20;51.60;;;;;;5018379;28;20180;-67
2022/01/31 04:30:29;;;;;;;1.60;1.50;;;21.20;51.50;;;;;;5034503;28;20226;-67
2022/01/31 04:32:54;;;;;;;2.05;1.85;;;21.20;51.60;;;;;;5018319;28;20195;-67
2022/01/31 04:35:20;;;;;;;2.72;1.50;;;21.30;51.60;;;;;;5018027;28;20181;-67
2022/01/31 04:37:46;;;;;;;2.40;1.52;;;21.20;51.60;;;;;;5035818;28;20223;-67
2022/01/31 04:40:14;;;;;;;2.67;1.95;;;21.20;51.60;;;;;;5035699;28;20206;-67
2022/01/31 04:42:44;;;;;;;2.95;1.98;;;21.20;51.60;;;;;;5035701;28;20195;-67
2022/01/31 04:45:11;;;;;;;2.22;1.85;;;21.20;51.60;;;;;;5034265;28;20168;-67
2022/01/31 04:47:37;;;;;;;3.20;1.85;;;21.30;51.70;;;;;;5017652;28;20190;-67
2022/01/31 04:50:05;;;;;;;3.58;1.70;;;21.20;51.60;;;;;;5035228;28;20317;-67
2022/01/31 04:52:30;;;;;;;1.70;1.40;;;21.20;51.60;;;;;;5017892;28;20258;-67
2022/01/31 04:54:56;;;;;;;2.92;1.52;;;21.20;51.50;;;;;;5017653;28;20286;-67
2022/01/31 04:57:22;;;;;;;1.98;1.42;;;21.20;51.50;;;;;;5035145;28;20217;-67
2022/01/31 04:59:49;;;;;;;1.80;1.50;;;21.20;51.50;;;;;;5017671;28;20187;-67
2022/01/31 05:02:15;;;;;;;2.50;1.40;;;21.20;51.50;;;;;;5035363;28;20184;-67
2022/01/31 05:04:40;;;;;;;1.55;1.38;;;21.20;51.50;;;;;;5017428;28;20190;-67
2022/01/31 05:07:06;;;;;;;3.25;1.70;;;21.20;51.50;;;;;;5017516;28;20184;-67
2022/01/31 05:09:32;;;;;;;1.58;1.38;;;21.20;51.50;;;;;;5017657;28;20557;-68
2022/01/31 05:11:58;;;;;;;1.70;1.42;;;21.20;51.50;;;;;;5017107;28;20238;-67
2022/01/31 05:14:24;;;;;;;1.98;1.73;;;21.20;51.50;;;;;;5017264;28;20278;-68
2022/01/31 05:16:50;;;;;;;2.47;1.60;;;21.20;51.50;;;;;;5017654;28;20262;-68
2022/01/31 05:19:16;;;;;;;2.22;1.40;;;21.20;51.50;;;;;;5016686;28;20215;-67
2022/01/31 05:21:42;;;;;;;2.30;1.35;;;21.20;51.60;;;;;;5017170;28;20302;-68
2022/01/31 05:24:07;;;;;;;1.67;1.50;;;21.20;51.60;;;;;;5017043;28;20210;-67
2022/01/31 05:26:34;;;;;;;3.70;1.80;;;21.20;51.60;;;;;;5034667;28;20698;-68
2022/01/31 05:29:00;;;;;;;2.72;1.90;;;21.20;51.60;;;;;;5034749;28;20576;-67
2022/01/31 05:31:25;;;;;;;3.58;1.50;;;21.20;51.60;;;;;;5017322;28;20195;-67
2022/01/31 05:33:51;;;;;;;3.28;1.50;;;21.20;51.70;;;;;;5017110;28;20187;-67
2022/01/31 05:36:17;;;;;;;5.05;1.70;;;21.20;51.70;;;;;;5016712;28;20190;-68
2022/01/31 05:38:44;;;;;;;4.55;1.70;;;21.30;51.80;;;;;;5016788;28;20218;-68
2022/01/31 05:41:17;;;;;;;4.57;1.30;;;21.20;51.80;;;;;;5034518;28;20212;-67
2022/01/31 05:43:43;;;;;;;2.42;1.58;;;21.30;51.90;;;;;;5016941;28;20550;-68
2022/01/31 05:46:09;;;;;;;5.50;1.67;;;21.20;51.80;;;;;;5016622;28;20187;-67
2022/01/31 05:48:34;;;;;;;2.53;1.45;;;21.20;51.90;;;;;;5016887;28;20199;-68
2022/01/31 05:53:36;;;;;;;2.53;1.50;;;21.20;51.90;;;;;;5050680;28;20218;-66
2022/01/31 05:56:02;;;;;;;4.10;1.60;;;21.20;51.90;;;;;;5053303;28;20236;-67
2022/01/31 05:58:28;;;;;;;2.83;1.60;;;21.20;52.10;;;;;;5053907;28;20305;-67
2022/01/31 06:00:54;;;;;;;4.90;1.48;;;21.20;52.10;;;;;;5036230;28;20275;-67
2022/01/31 06:03:19;;;;;;;4.97;1.70;;;21.20;52.20;;;;;;5019338;28;20210;-67
2022/01/31 06:05:45;;;;;;;2.58;1.50;;;21.20;52.20;;;;;;5035878;28;20222;-67
2022/01/31 06:08:11;;;;;;;6.22;1.90;;;21.20;52.20;;;;;;5019309;28;20193;-67
2022/01/31 06:10:42;;;;;;;8.50;1.63;;;21.20;52.20;;;;;;5035820;28;20603;-67
2022/01/31 06:13:08;;;;;;;3.63;1.70;;;21.20;52.20;;;;;;5035700;28;20206;-67
2022/01/31 06:15:34;;;;;;;4.32;1.50;;;21.30;52.30;;;;;;5035168;28;20209;-67
2022/01/31 06:18:00;;;;;;;3.75;1.70;;;21.20;52.20;;;;;;5035350;28;20285;-66
2022/01/31 06:20:27;;;;;;;3.17;1.70;;;21.20;52.20;;;;;;5052893;28;20679;-67
2022/01/31 06:22:53;;;;;;;4.28;1.73;;;21.20;52.10;;;;;;5035271;28;20207;-67
2022/01/31 06:25:20;;;;;;;4.30;1.70;;;21.20;52.10;;;;;;5034945;28;20191;-67
2022/01/31 06:27:47;;;;;;;5.03;1.45;;;21.20;52.20;;;;;;5018663;28;20202;-67
2022/01/31 06:30:13;;;;;;;2.92;1.65;;;21.20;52.20;;;;;;5017879;28;20214;-67
2022/01/31 06:32:44;;;;;;;2.00;1.50;;;21.20;52.20;;;;;;5018992;28;20213;-67
2022/01/31 06:35:10;;;;;;;2.25;1.42;;;21.20;52.20;;;;;;5018163;28;20187;-66
2022/01/31 06:37:36;;;;;;;2.42;1.38;;;21.20;52.10;;;;;;5030720;28;20660;-66
2022/01/31 06:40:04;;;;;;;2.50;1.48;;;21.20;52.10;;;;;;5034788;28;20178;-67
2022/01/31 06:42:30;;;;;;;1.80;1.38;;;21.20;52.10;;;;;;5017965;28;20209;-67
2022/01/31 06:44:55;;;;;;;3.00;1.50;;;21.20;51.90;;;;;;5034298;28;20265;-67
2022/01/31 06:47:21;;;;;;;3.40;1.27;;;21.20;52.00;;;;;;5031232;28;20183;-67
2022/01/31 06:49:47;;;;;;;2.55;1.50;;;21.20;51.90;;;;;;5014675;28;20270;-67
2022/01/31 06:52:13;;;;;;;2.85;1.17;;;21.20;51.90;;;;;;5031183;28;20310;-66
2022/01/31 06:54:39;;;;;;;3.17;1.95;;;21.20;52.00;;;;;;5030965;28;20183;-67
2022/01/31 06:57:05;;;;;;;3.10;1.20;;;21.20;51.90;;;;;;5031234;28;20179;-67
2022/01/31 06:59:31;;;;;;;3.97;1.50;;;21.20;51.90;;;;;;5031055;28;20225;-67
2022/01/31 07:01:57;;;;;;;2.20;1.35;;;21.20;51.80;;;;;;5023398;28;20206;-67
2022/01/31 07:04:23;;;;;;;3.08;1.17;;;21.20;51.90;;;;;;5018116;28;20190;-67
2022/01/31 07:06:48;;;;;;;2.67;1.42;;;21.20;52.00;;;;;;5034234;28;20179;-67
2022/01/31 07:09:14;;;;;;;2.13;1.42;;;21.20;52.20;;;;;;5034322;28;20599;-67
2022/01/31 07:11:42;;;;;;;2.85;1.40;;;21.20;52.00;;;;;;5017157;28;20205;-67
2022/01/31 07:14:30;;;;;;;2.60;1.20;;;21.20;52.00;;;;;;5018006;28;20187;-67
2022/01/31 07:16:56;;;;;;;2.35;1.48;;;21.20;52.00;;;;;;5051576;28;20217;-66
2022/01/31 07:19:26;;;;;;;2.65;1.40;;;21.20;52.00;;;;;;5034229;28;20244;-67
2022/01/31 07:21:52;;;;;;;1.65;1.30;;;21.20;52.00;;;;;;5051579;28;20293;-67
2022/01/31 07:26:46;;;;;;;2.28;1.20;;;21.20;52.50;;;;;;5036188;28;20184;-67
2022/01/31 07:29:12;;;;;;;1.42;1.33;;;21.30;52.00;;;;;;5032075;28;20181;-66
2022/01/31 07:31:39;;;;;;;2.55;1.17;;;21.20;51.80;;;;;;5015843;28;20201;-67
2022/01/31 07:34:07;;;;;;;1.75;0.98;;;21.20;51.80;;;;;;5031810;28;20192;-67
2022/01/31 07:36:33;;;;;;;2.00;1.38;;;21.20;51.80;;;;;;5022192;28;20178;-66
2022/01/31 07:38:59;;;;;;;1.45;1.10;;;21.20;51.80;;;;;;5036194;28;20322;-66
2022/01/31 07:41:25;;;;;;;2.08;1.15;;;21.20;51.70;;;;;;5026142;28;20249;-67
2022/01/31 07:43:51;;;;;;;2.90;1.30;;;21.20;51.70;;;;;;5020173;28;20201;-67
2022/01/31 07:46:17;;;;;;;2.40;1.40;;;21.20;51.70;;;;;;5020581;28;20178;-66
2022/01/31 07:48:43;;;;;;;1.35;1.25;;;21.20;51.70;;;;;;5020853;28;20540;-67
2022/01/31 07:51:10;;;;;;;2.35;1.42;;;21.20;51.70;;;;;;5038251;28;20183;-66
2022/01/31 07:53:39;;;;;;;2.10;1.35;;;21.20;51.70;;;;;;5023363;28;20193;-66
2022/01/31 07:56:08;;;;;;;3.40;1.50;;;21.20;51.70;;;;;;5039961;28;20178;-67
2022/01/31 07:58:36;;;;;;;2.33;1.88;;;21.20;51.70;;;;;;5040267;28;20217;-67
2022/01/31 08:01:03;;;;;;;2.88;1.60;;;21.20;51.70;;;;;;5040623;28;20228;-67
2022/01/31 08:03:30;;;;;;;1.88;1.40;;;21.20;51.70;;;;;;5024021;28;20298;-67
2022/01/31 08:05:57;;;;;;;3.05;1.65;;;21.20;51.70;;;;;;5036740;28;20273;-67
2022/01/31 08:08:23;;;;;;;2.67;1.30;;;21.20;51.80;;;;;;5020394;28;20183;-67
2022/01/31 08:10:50;;;;;;;1.90;1.50;;;21.20;51.70;;;;;;5020383;28;20198;-66
2022/01/31 08:13:16;;;;;;;2.25;1.50;;;21.20;51.80;;;;;;5023130;28;20214;-67
2022/01/31 08:15:47;;;;;;;1.40;1.25;;;21.20;51.70;;;;;;5039959;28;20198;-67
2022/01/31 08:18:14;;;;;;;1.55;1.13;;;21.20;51.70;;;;;;5040380;28;20212;-67
2022/01/31 08:20:41;;;;;;;2.10;1.00;;;21.20;51.70;;;;;;5024001;28;20389;-67
2022/01/31 08:23:10;;;;;;;1.38;1.00;;;21.20;51.70;;;;;;5020214;28;20207;-67
2022/01/31 08:25:37;;;;;;;1.77;1.10;;;21.20;51.70;;;;;;5019767;28;20666;-68
2022/01/31 08:28:10;;;;;;;2.40;1.20;;;21.20;51.80;;;;;;5037469;28;20242;-66
2022/01/31 08:30:46;;;;;;;3.17;1.40;;;21.20;51.80;;;;;;5023864;28;20182;-68
2022/01/31 08:33:31;;;;;;;6.85;1.33;;;21.20;51.90;;;;;;5027141;28;20214;-67
2022/01/31 08:36:02;;;;;;;4.07;1.67;;;21.20;52.00;;;;;;5039952;28;20562;-68
2022/01/31 08:38:29;;;;;;;5.20;1.17;;;21.20;52.00;;;;;;5040083;28;20214;-69
2022/01/31 08:40:55;;;;;;;3.90;1.60;;;21.20;52.00;;;;;;5023176;28;20182;-67
2022/01/31 08:43:22;;;;;;;3.35;1.73;;;21.20;52.20;;;;;;5039419;28;20215;-68
2022/01/31 08:45:49;;;;;;;2.67;1.33;;;21.20;52.20;;;;;;5039075;28;20198;-67
2022/01/31 08:48:15;;;;;;;3.80;1.38;;;21.20;52.20;;;;;;5023210;28;20221;-68
2022/01/31 08:50:40;;;;;;;1.95;1.23;;;21.20;52.30;;;;;;5039881;28;20260;-69
2022/01/31 08:53:06;;;;;;;1.38;1.27;;;21.20;52.90;;;;;;5036505;28;20292;-67
2022/01/31 08:55:32;;;;;;;2.15;1.17;;;21.20;52.20;;;;;;5035688;28;20186;-67
2022/01/31 08:57:58;;;;;;;2.55;1.40;;;21.20;52.90;;;;;;5019759;28;20217;-66
2022/01/31 09:00:34;;;;;;;2.13;1.00;;;21.30;53.20;;;;;;5019996;28;20186;-66
2022/01/31 09:05:38;;;;;;;1.70;1.20;;;21.30;53.10;;;;;;5028331;28;20198;-66
2022/01/31 09:08:04;;;;;;;2.75;1.30;;;21.30;53.00;;;;;;5020064;28;20194;-67
2022/01/31 09:10:30;;;;;;;1.95;1.48;;;21.30;52.90;;;;;;5053289;28;20186;-66
2022/01/31 09:12:56;;;;;;;3.25;1.23;;;21.30;53.00;;;;;;5053587;28;20266;-66
2022/01/31 09:15:22;;;;;;;3.35;1.17;;;21.30;53.00;;;;;;5018852;28;20186;-66
2022/01/31 09:17:49;;;;;;;1.83;1.25;;;21.30;53.00;;;;;;5035846;28;20207;-66
2022/01/31 09:20:16;;;;;;;6.57;1.33;;;21.20;52.90;;;;;;5052777;28;20270;-67
2022/01/31 09:22:43;;;;;;;1.92;1.10;;;21.20;52.90;;;;;;5035640;28;20224;-67
2022/01/31 09:25:11;;;;;;;2.80;1.20;;;21.30;52.90;;;;;;5047016;28;20236;-67
2022/01/31 09:27:37;;;;;;;1.10;0.95;;;21.30;52.90;;;;;;5016679;28;20214;-66
2022/01/31 09:30:09;;;;;;;1.33;1.08;;;21.30;52.80;;;;;;5021787;28;20187;-67
2022/01/31 09:32:36;;;;;;;1.85;1.05;;;21.20;52.70;;;;;;5024348;28;20198;-66
2022/01/31 09:35:03;;;;;;;1.85;1.05;;;21.30;52.80;;;;;;5030575;28;20176;-67
2022/01/31 09:37:29;;;;;;;3.33;1.17;;;21.30;52.60;;;;;;5015833;28;20233;-67
2022/01/31 09:40:02;;;;;;;1.23;1.08;;;21.30;52.60;;;;;;5021330;28;20190;-67
2022/01/31 09:42:35;;;;;;;1.75;1.27;;;21.30;52.50;;;;;;5040924;28;20202;-67
2022/01/31 09:45:37;;;;;;;3.70;1.40;;;21.30;52.40;;;;;;5018813;28;20183;-66
2022/01/31 09:50:26;;;;;;;3.85;1.38;;;21.30;52.30;;;;;;5035162;28;20661;-67
2022/01/31 09:52:52;;;;;;;2.33;1.27;;;21.30;52.30;;;;;;5029170;28;20219;-67
2022/01/31 09:55:17;;;;;;;0.88;0.88;;;21.30;52.40;;;;;;5051358;28;20252;-66
2022/01/31 09:57:43;;;;;;;2.95;1.27;;;21.30;52.30;;;;;;5051629;28;20186;-67
2022/01/31 10:00:10;;;;;;;2.50;0.95;;;21.30;52.30;;;;;;5018337;28;20191;-67
2022/01/31 10:03:09;;;;;;;1.65;0.98;;;21.30;52.30;;;;;;5051744;28;20309;-66
2022/01/31 10:05:35;;;;;;;2.17;1.20;;;21.30;52.30;;;;;;5014976;28;20567;-66
2022/01/31 10:08:14;;;;;;;2.03;1.10;;;21.40;53.00;;;;;;5015626;28;20191;-66
2022/01/31 10:10:45;;;;;;;1.90;0.90;;;21.30;52.30;;;;;;5018698;28;20182;-67
2022/01/31 10:19:10;;;;;;;1.90;1.05;;;21.30;52.40;;;;;;5022360;28;20221;-67
2022/01/31 10:21:59;;;;;;;1.70;1.10;;;21.30;52.40;;;;;;5029059;28;20283;-68
2022/01/31 10:24:27;;;;;;;2.92;1.25;;;21.30;52.00;;;;;;5031208;28;20178;-66
2022/01/31 10:26:53;;;;;;;2.15;0.90;;;21.30;51.90;;;;;;5010408;28;20262;-66
2022/01/31 10:29:22;;;;;;;4.35;1.10;;;21.40;51.90;;;;;;5033841;28;20186;-66
2022/01/31 10:32:06;;;;;;;4.15;1.20;;;21.40;51.90;;;;;;5034410;28;20296;-67
2022/01/31 10:34:44;;;;;;;3.80;1.02;;;21.40;51.90;;;;;;5026603;28;20245;-68
2022/01/31 10:37:15;;;;;;;0.93;0.88;;;21.40;51.90;;;;;;5022358;28;20210;-67
2022/01/31 10:56:34;;;;;;;1.27;0.98;;;21.40;52.50;;;;;;5035513;28;20187;-66
2022/01/31 10:59:10;;;;;;;3.50;1.00;;;21.40;51.90;;;;;;5034817;28;20574;-67
2022/01/31 11:01:38;;;;;;;2.55;0.80;;;21.40;51.90;;;;;;5034865;28;20238;-67
2022/01/31 11:04:07;;;;;;;1.95;0.88;;;21.40;51.90;;;;;;5035091;28;20174;-67
2022/01/31 11:06:34;;;;;;;2.15;0.90;;;21.40;51.80;;;;;;5034536;28;20189;-67
2022/01/31 11:09:04;;;;;;;1.90;0.90;;;21.40;51.80;;;;;;5034742;28;20317;-67
2022/01/31 11:11:32;;;;;;;1.42;0.90;;;21.40;51.80;;;;;;5034677;28;20320;-64
2022/01/31 11:13:59;;;;;;;1.27;1.00;;;21.40;51.80;;;;;;5034691;28;20197;-67
2022/01/31 11:16:26;;;;;;;0.70;0.70;;;21.40;51.80;;;;;;5033792;28;20186;-67
2022/01/31 11:18:58;;;;;;;2.08;0.80;;;21.40;51.70;;;;;;5017475;28;20214;-67
2022/01/31 11:21:29;;;;;;;2.40;0.85;;;21.40;51.70;;;;;;5046552;28;20212;-67
2022/01/31 11:24:02;;;;;;;1.33;0.90;;;21.40;51.60;;;;;;5051370;28;20196;-67
2022/01/31 11:26:41;;;;;;;1.98;1.10;;;21.40;51.60;;;;;;5051308;28;20209;-67
2022/01/31 11:29:08;;;;;;;0.93;0.90;;;21.40;51.60;;;;;;5034549;28;20186;-67
2022/01/31 11:31:38;;;;;;;1.60;0.98;;;21.40;51.70;;;;;;5052190;28;20301;-66
2022/01/31 11:34:07;;;;;;;1.75;0.90;;;21.40;51.60;;;;;;5034425;28;20175;-67
2022/01/31 11:36:37;;;;;;;0.65;0.60;;;21.40;51.60;;;;;;5051802;28;20212;-66
2022/01/31 11:39:12;;;;;;;2.55;0.95;;;21.40;51.50;;;;;;4999309;28;20204;-66
2022/01/31 11:41:50;;;;;;;2.15;0.85;;;21.40;51.50;;;;;;5044220;28;20196;-66
2022/01/31 11:44:50;;;;;;;1.98;0.95;;;21.40;51.40;;;;;;5034586;28;20642;-66
2022/01/31 11:47:23;;;;;;;1.95;0.80;;;21.40;51.50;;;;;;5018187;28;20166;-67
2022/01/31 11:50:06;;;;;;;0.93;0.88;;;21.40;51.50;;;;;;5034632;28;20193;-67
2022/01/31 11:52:45;;;;;;;1.10;0.90;;;21.40;51.60;;;;;;5065784;22;20221;-68
2022/01/31 11:55:15;;;;;;;3.83;0.93;;;21.40;51.60;;;;;;5035597;28;20248;-68
2022/01/31 11:57:47;;;;;;;1.05;0.80;;;21.40;51.60;;;;;;5045605;28;20182;-69
2022/01/31 12:00:16;;;;;;;2.38;1.00;;;21.40;51.60;;;;;;5036822;28;20186;-68
2022/01/31 12:02:55;;;;;;;1.88;0.73;;;21.30;51.50;;;;;;5070979;28;20216;-68
2022/01/31 12:05:27;;;;;;;2.78;0.77;;;21.40;51.60;;;;;;5033312;28;20186;-69
2022/01/31 12:08:17;;;;;;;1.60;0.75;;;21.40;51.60;;;;;;5025850;28;20187;-67
2022/01/31 12:11:03;;;;;;;2.92;0.95;;;21.40;51.70;;;;;;5036178;28;20189;-67
2022/01/31 12:13:40;;;;;;;3.65;0.90;;;21.40;51.70;;;;;;5050011;28;20293;-68
2022/01/31 12:16:20;;;;;;;1.15;0.82;;;21.40;51.80;;;;;;5055588;28;20178;-67
2022/01/31 12:19:28;;;;;;;1.48;0.88;;;21.40;51.70;;;;;;5033713;28;20221;-68
2022/01/31 12:22:00;;;;;;;2.30;1.00;;;21.40;51.70;;;;;;5053002;28;20193;-68
2022/01/31 12:24:37;;;;;;;4.32;0.80;;;21.40;51.70;;;;;;5053617;28;20177;-68
2022/01/31 12:27:10;;;;;;;2.55;0.80;;;21.40;51.80;;;;;;5037003;28;20231;-67
2022/01/31 12:29:56;;;;;;;3.55;1.00;;;21.30;51.70;;;;;;5055303;28;20258;-68
2022/01/31 12:32:37;;;;;;;1.95;0.77;;;21.40;51.80;;;;;;5053648;28;20263;-68
2022/01/31 12:35:08;;;;;;;2.13;1.00;;;21.30;51.60;;;;;;5040420;28;20190;-67
2022/01/31 12:37:38;;;;;;;4.30;1.00;;;21.30;51.70;;;;;;5040419;28;20186;-68
2022/01/31 12:40:14;;;;;;;3.47;0.80;;;21.30;51.60;;;;;;5054304;28;20189;-68
2022/01/31 12:45:39;;;;;;;2.05;0.80;;;21.30;51.60;;;;;;5068099;28;20214;-68
2022/01/31 12:48:20;;;;;;;1.33;0.90;;;21.30;51.60;;;;;;5074876;28;20170;-68
2022/01/31 12:50:49;;;;;;;2.58;0.98;;;21.40;51.80;;;;;;5045077;28;20194;-68
2022/01/31 12:53:28;;;;;;;4.80;1.27;;;21.40;51.90;;;;;;5055204;28;20236;-67
2022/01/31 12:56:03;;;;;;;3.13;0.77;;;21.40;52.20;;;;;;5056918;28;20193;-67
2022/01/31 12:58:44;;;;;;;3.08;0.93;;;21.40;52.40;;;;;;5037138;28;20210;-68
2022/01/31 13:01:31;;;;;;;4.10;1.10;;;21.40;52.40;;;;;;5037211;28;20182;-69
2022/01/31 13:04:09;;;;;;;8.90;1.25;;;21.40;52.20;;;;;;5037414;28;20210;-67
2022/01/31 13:06:47;;;;;;;4.85;1.40;;;21.40;52.30;;;;;;5053177;28;20185;-68
2022/01/31 13:09:25;;;;;;;3.55;1.20;;;21.40;52.40;;;;;;5053405;28;20324;-68
2022/01/31 13:12:03;;;;;;;5.20;1.27;;;21.40;52.40;;;;;;5055844;28;20212;-67
2022/01/31 13:14:40;;;;;;;6.25;1.30;;;21.40;52.20;;;;;;5048045;28;20185;-68
2022/01/31 13:17:13;;;;;;;5.63;1.38;;;21.40;52.10;;;;;;5025202;28;20264;-68
2022/01/31 13:19:42;;;;;;;6.55;1.30;;;21.40;52.10;;;;;;5036801;28;20202;-68
2022/01/31 13:22:24;;;;;;;4.40;1.20;;;21.40;52.10;;;;;;5039428;28;20212;-68
2022/01/31 13:24:56;;;;;;;4.75;1.10;;;21.40;52.10;;;;;;5048257;28;20174;-68
2022/01/31 13:27:39;;;;;;;3.60;1.50;;;21.40;52.00;;;;;;5074349;28;20656;-68
2022/01/31 13:30:15;;;;;;;5.53;1.25;;;21.40;52.20;;;;;;5074488;28;20223;-68
2022/01/31 13:32:41;;;;;;;2.70;1.00;;;20.80;46.60;;;;;;5039815;28;20220;-68
2022/01/31 13:35:12;;;;;;;4.82;1.08;;;20.80;51.30;;;;;;5054918;28;20194;-68
2022/01/31 13:37:55;;;;;;;5.50;0.80;;;20.90;51.40;;;;;;5055539;28;20261;-68